sensor_id;sensor_type;location;lat;lon;timestamp;temperature;humidity
42479;DHT22;28110;47.080;9.476;2023-03-01T00:01:49;1.20;99.90
42479;DHT22;28110;47.080;9.476;2023-03-01T00:04:15;1.20;99.90
42479;DHT22;28110;47.080;9.476;2023-03-01T00:06:42;1.20;99.90
42479;DHT22;28110;47.080;9.476;2023-03-01T00:09:08;1.20;99.90
42479;DHT22;28110;47.080;9.476;2023-03-01T00:11:34;1.20;99.90
42479;DHT22;28110;47.080;9.476;2023-03-01T00:14:00;1.20;99.90
42479;DHT22;28110;47.080;9.476;2023-03-01T00:16:31;1.20;99.90
42479;DHT22;28110;47.080;9.476;2023-03-01T00:18:59;1.10;99.90
42479;DHT22;28110;47.080;9.476;2023-03-01T00:21:25;1.20;99.90
42479;DHT22;28110;47.080;9.476;2023-03-01T00:23:52;1.20;99.90
42479;DHT22;28110;47.080;9.476;2023-03-01T00:26:20;1.10;99.90
42479;DHT22;28110;47.080;9.476;2023-03-01T00:28:46;1.20;99.90
42479;DHT22;28110;47.080;9.476;2023-03-01T00:31:18;1.20;99.90
42479;DHT22;28110;47.080;9.476;2023-03-01T00:33:45;1.20;99.90
42479;DHT22;28110;47.080;9.476;2023-03-01T00:36:12;1.20;99.90
42479;DHT22;28110;47.080;9.476;2023-03-01T00:38:40;1.20;99.90
42479;DHT22;28110;47.080;9.476;2023-03-01T00:41:11;1.20;99.90
42479;DHT22;28110;47.080;9.476;2023-03-01T00:43:37;1.20;99.90
42479;DHT22;28110;47.080;9.476;2023-03-01T00:46:08;1.20;99.90
42479;DHT22;28110;47.080;9.476;2023-03-01T00:48:35;1.20;99.90
42479;DHT22;28110;47.080;9.476;2023-03-01T00:51:08;1.20;99.90
42479;DHT22;28110;47.080;9.476;2023-03-01T00:53:34;1.10;99.90
42479;DHT22;28110;47.080;9.476;2023-03-01T00:56:00;1.10;99.90
42479;DHT22;28110;47.080;9.476;2023-03-01T00:58:26;1.10;99.90
42479;DHT22;28110;47.080;9.476;2023-03-01T01:00:51;1.10;99.90
42479;DHT22;28110;47.080;9.476;2023-03-01T01:03:20;1.10;99.90
42479;DHT22;28110;47.080;9.476;2023-03-01T01:05:46;1.10;99.90
42479;DHT22;28110;47.080;9.476;2023-03-01T01:08:11;1.10;99.90
42479;DHT22;28110;47.080;9.476;2023-03-01T01:10:37;1.00;99.90
42479;DHT22;28110;47.080;9.476;2023-03-01T01:13:03;1.00;99.90
42479;DHT22;28110;47.080;9.476;2023-03-01T01:15:33;1.00;99.90
42479;DHT22;28110;47.080;9.476;2023-03-01T01:17:59;1.00;99.90
42479;DHT22;28110;47.080;9.476;2023-03-01T01:20:24;1.00;99.90
42479;DHT22;28110;47.080;9.476;2023-03-01T01:22:50;1.00;99.90
42479;DHT22;28110;47.080;9.476;2023-03-01T01:25:16;0.90;99.90
42479;DHT22;28110;47.080;9.476;2023-03-01T01:27:42;1.00;99.90
42479;DHT22;28110;47.080;9.476;2023-03-01T01:30:08;1.00;99.90
42479;DHT22;28110;47.080;9.476;2023-03-01T01:32:33;1.00;99.90
42479;DHT22;28110;47.080;9.476;2023-03-01T01:34:59;1.00;99.90
42479;DHT22;28110;47.080;9.476;2023-03-01T01:37:24;1.00;99.90
42479;DHT22;28110;47.080;9.476;2023-03-01T01:39:57;1.00;99.90
42479;DHT22;28110;47.080;9.476;2023-03-01T01:42:23;1.00;99.90
42479;DHT22;28110;47.080;9.476;2023-03-01T01:45:29;1.00;99.90
42479;DHT22;28110;47.080;9.476;2023-03-01T01:47:59;1.00;99.90
42479;DHT22;28110;47.080;9.476;2023-03-01T01:50:26;1.00;99.90
42479;DHT22;28110;47.080;9.476;2023-03-01T01:52:53;1.00;99.90
42479;DHT22;28110;47.080;9.476;2023-03-01T01:55:24;1.00;99.90
42479;DHT22;28110;47.080;9.476;2023-03-01T01:57:56;1.00;99.90
42479;DHT22;28110;47.080;9.476;2023-03-01T02:00:26;1.00;99.90
42479;DHT22;28110;47.080;9.476;2023-03-01T02:03:39;1.00;99.90
42479;DHT22;28110;47.080;9.476;2023-03-01T02:06:03;1.00;99.90
42479;DHT22;28110;47.080;9.476;2023-03-01T02:08:33;1.00;99.90
42479;DHT22;28110;47.080;9.476;2023-03-01T02:10:59;1.00;99.90
42479;DHT22;28110;47.080;9.476;2023-03-01T02:13:26;1.00;99.90
42479;DHT22;28110;47.080;9.476;2023-03-01T02:15:52;1.00;99.90
42479;DHT22;28110;47.080;9.476;2023-03-01T02:18:20;1.00;99.90
42479;DHT22;28110;47.080;9.476;2023-03-01T02:23:36;1.00;99.90
42479;DHT22;28110;47.080;9.476;2023-03-01T02:26:29;0.90;99.90
42479;DHT22;28110;47.080;9.476;2023-03-01T02:28:58;0.90;99.90
42479;DHT22;28110;47.080;9.476;2023-03-01T02:31:24;0.90;99.90
42479;DHT22;28110;47.080;9.476;2023-03-01T02:34:14;0.80;99.90
42479;DHT22;28110;47.080;9.476;2023-03-01T02:36:47;0.90;99.90
42479;DHT22;28110;47.080;9.476;2023-03-01T02:39:18;0.90;99.90
42479;DHT22;28110;47.080;9.476;2023-03-01T02:41:51;0.90;99.90
42479;DHT22;28110;47.080;9.476;2023-03-01T02:44:17;0.90;99.90
42479;DHT22;28110;47.080;9.476;2023-03-01T02:46:49;0.80;99.90
42479;DHT22;28110;47.080;9.476;2023-03-01T02:49:26;0.80;99.90
42479;DHT22;28110;47.080;9.476;2023-03-01T02:52:08;0.80;99.90
42479;DHT22;28110;47.080;9.476;2023-03-01T02:54:57;0.80;99.90
42479;DHT22;28110;47.080;9.476;2023-03-01T02:57:24;0.80;99.90
42479;DHT22;28110;47.080;9.476;2023-03-01T02:59:51;0.80;99.90
42479;DHT22;28110;47.080;9.476;2023-03-01T03:02:29;0.80;99.90
42479;DHT22;28110;47.080;9.476;2023-03-01T03:05:28;0.80;99.90
42479;DHT22;28110;47.080;9.476;2023-03-01T03:07:54;0.80;99.90
42479;DHT22;28110;47.080;9.476;2023-03-01T03:10:24;0.70;99.90
42479;DHT22;28110;47.080;9.476;2023-03-01T03:12:59;0.70;99.90
42479;DHT22;28110;47.080;9.476;2023-03-01T03:15:25;0.80;99.90
42479;DHT22;28110;47.080;9.476;2023-03-01T03:17:52;0.70;99.90
42479;DHT22;28110;47.080;9.476;2023-03-01T03:20:21;0.70;99.90
42479;DHT22;28110;47.080;9.476;2023-03-01T03:22:48;0.70;99.90
42479;DHT22;28110;47.080;9.476;2023-03-01T03:25:16;0.70;99.90
42479;DHT22;28110;47.080;9.476;2023-03-01T03:27:43;0.70;99.90
42479;DHT22;28110;47.080;9.476;2023-03-01T03:30:14;0.70;99.90
42479;DHT22;28110;47.080;9.476;2023-03-01T03:32:41;0.70;99.90
42479;DHT22;28110;47.080;9.476;2023-03-01T03:35:08;0.80;99.90
42479;DHT22;28110;47.080;9.476;2023-03-01T03:37:38;0.80;99.90
42479;DHT22;28110;47.080;9.476;2023-03-01T03:40:23;0.80;99.90
42479;DHT22;28110;47.080;9.476;2023-03-01T03:42:48;0.80;99.90
42479;DHT22;28110;47.080;9.476;2023-03-01T03:45:17;0.80;99.90
42479;DHT22;28110;47.080;9.476;2023-03-01T03:47:44;0.80;99.90
42479;DHT22;28110;47.080;9.476;2023-03-01T03:50:11;0.80;99.90
42479;DHT22;28110;47.080;9.476;2023-03-01T03:52:36;0.80;99.90
42479;DHT22;28110;47.080;9.476;2023-03-01T03:55:02;0.70;99.90
42479;DHT22;28110;47.080;9.476;2023-03-01T03:57:28;0.70;99.90
42479;DHT22;28110;47.080;9.476;2023-03-01T03:59:54;0.70;99.90
42479;DHT22;28110;47.080;9.476;2023-03-01T04:02:19;0.70;99.90
42479;DHT22;28110;47.080;9.476;2023-03-01T04:04:48;0.70;99.90
42479;DHT22;28110;47.080;9.476;2023-03-01T04:07:17;0.70;99.90
42479;DHT22;28110;47.080;9.476;2023-03-01T04:09:43;0.60;99.90
42479;DHT22;28110;47.080;9.476;2023-03-01T04:12:09;0.60;99.90
42479;DHT22;28110;47.080;9.476;2023-03-01T04:14:36;0.60;99.90
42479;DHT22;28110;47.080;9.476;2023-03-01T04:17:01;0.60;99.90
42479;DHT22;28110;47.080;9.476;2023-03-01T04:19:31;0.60;99.90
42479;DHT22;28110;47.080;9.476;2023-03-01T04:22:02;0.60;99.90
42479;DHT22;28110;47.080;9.476;2023-03-01T04:24:33;0.60;99.90
42479;DHT22;28110;47.080;9.476;2023-03-01T04:26:58;0.60;99.90
42479;DHT22;28110;47.080;9.476;2023-03-01T04:29:24;0.60;99.90
42479;DHT22;28110;47.080;9.476;2023-03-01T04:31:49;0.60;99.90
42479;DHT22;28110;47.080;9.476;2023-03-01T04:34:15;0.60;99.90
42479;DHT22;28110;47.080;9.476;2023-03-01T04:36:40;0.60;99.90
42479;DHT22;28110;47.080;9.476;2023-03-01T04:39:06;0.60;99.90
42479;DHT22;28110;47.080;9.476;2023-03-01T04:41:38;0.60;99.90
42479;DHT22;28110;47.080;9.476;2023-03-01T04:44:04;0.60;99.90
42479;DHT22;28110;47.080;9.476;2023-03-01T04:46:30;0.60;99.90
42479;DHT22;28110;47.080;9.476;2023-03-01T04:48:55;0.60;99.90
42479;DHT22;28110;47.080;9.476;2023-03-01T04:51:21;0.70;99.90
42479;DHT22;28110;47.080;9.476;2023-03-01T04:53:47;0.70;99.90
42479;DHT22;28110;47.080;9.476;2023-03-01T04:56:13;0.70;99.90
42479;DHT22;28110;47.080;9.476;2023-03-01T04:58:39;0.70;99.90
42479;DHT22;28110;47.080;9.476;2023-03-01T05:01:12;0.60;99.90
42479;DHT22;28110;47.080;9.476;2023-03-01T05:03:51;0.60;99.90
42479;DHT22;28110;47.080;9.476;2023-03-01T05:06:18;0.60;99.90
42479;DHT22;28110;47.080;9.476;2023-03-01T05:08:44;0.60;99.90
42479;DHT22;28110;47.080;9.476;2023-03-01T05:11:11;0.70;99.90
42479;DHT22;28110;47.080;9.476;2023-03-01T05:13:38;0.70;99.90
42479;DHT22;28110;47.080;9.476;2023-03-01T05:16:05;0.70;99.90
42479;DHT22;28110;47.080;9.476;2023-03-01T05:18:32;0.70;99.90
42479;DHT22;28110;47.080;9.476;2023-03-01T05:21:04;0.70;99.90
42479;DHT22;28110;47.080;9.476;2023-03-01T05:23:31;0.60;99.90
42479;DHT22;28110;47.080;9.476;2023-03-01T05:26:02;0.60;99.90
42479;DHT22;28110;47.080;9.476;2023-03-01T05:28:29;0.60;99.90
42479;DHT22;28110;47.080;9.476;2023-03-01T05:30:56;0.60;99.90
42479;DHT22;28110;47.080;9.476;2023-03-01T05:33:21;0.60;99.90
42479;DHT22;28110;47.080;9.476;2023-03-01T05:35:48;0.60;99.90
42479;DHT22;28110;47.080;9.476;2023-03-01T05:38:14;0.60;99.90
42479;DHT22;28110;47.080;9.476;2023-03-01T05:40:42;0.60;99.90
42479;DHT22;28110;47.080;9.476;2023-03-01T05:43:07;0.60;99.90
42479;DHT22;28110;47.080;9.476;2023-03-01T05:45:33;0.60;99.90
42479;DHT22;28110;47.080;9.476;2023-03-01T05:48:00;0.60;99.90
42479;DHT22;28110;47.080;9.476;2023-03-01T05:50:28;0.60;99.90
42479;DHT22;28110;47.080;9.476;2023-03-01T05:53:03;0.60;99.90
42479;DHT22;28110;47.080;9.476;2023-03-01T05:55:31;0.60;99.90
42479;DHT22;28110;47.080;9.476;2023-03-01T05:58:01;0.60;99.90
42479;DHT22;28110;47.080;9.476;2023-03-01T06:00:28;0.60;99.90
42479;DHT22;28110;47.080;9.476;2023-03-01T06:02:55;0.60;99.90
42479;DHT22;28110;47.080;9.476;2023-03-01T06:05:20;0.70;99.90
42479;DHT22;28110;47.080;9.476;2023-03-01T06:07:47;0.70;99.90
42479;DHT22;28110;47.080;9.476;2023-03-01T06:10:13;0.70;99.90
42479;DHT22;28110;47.080;9.476;2023-03-01T06:12:40;0.80;99.90
42479;DHT22;28110;47.080;9.476;2023-03-01T06:15:07;0.80;99.90
42479;DHT22;28110;47.080;9.476;2023-03-01T06:17:35;0.80;99.90
42479;DHT22;28110;47.080;9.476;2023-03-01T06:20:08;0.80;99.90
42479;DHT22;28110;47.080;9.476;2023-03-01T06:22:34;0.80;99.90
42479;DHT22;28110;47.080;9.476;2023-03-01T06:24:59;0.80;99.90
42479;DHT22;28110;47.080;9.476;2023-03-01T06:27:25;0.80;99.90
42479;DHT22;28110;47.080;9.476;2023-03-01T06:29:50;0.90;99.90
42479;DHT22;28110;47.080;9.476;2023-03-01T06:32:16;0.90;99.90
42479;DHT22;28110;47.080;9.476;2023-03-01T06:34:42;0.80;99.90
42479;DHT22;28110;47.080;9.476;2023-03-01T06:37:08;0.80;99.90
42479;DHT22;28110;47.080;9.476;2023-03-01T06:39:33;0.80;99.90
42479;DHT22;28110;47.080;9.476;2023-03-01T06:41:59;0.90;99.90
42479;DHT22;28110;47.080;9.476;2023-03-01T06:44:25;0.90;99.90
42479;DHT22;28110;47.080;9.476;2023-03-01T06:46:51;0.90;99.90
42479;DHT22;28110;47.080;9.476;2023-03-01T06:49:16;1.00;99.90
42479;DHT22;28110;47.080;9.476;2023-03-01T06:51:43;1.00;99.90
42479;DHT22;28110;47.080;9.476;2023-03-01T06:54:09;1.00;99.90
42479;DHT22;28110;47.080;9.476;2023-03-01T06:56:35;1.10;99.90
42479;DHT22;28110;47.080;9.476;2023-03-01T06:59:00;1.10;99.90
42479;DHT22;28110;47.080;9.476;2023-03-01T07:01:26;1.20;99.90
42479;DHT22;28110;47.080;9.476;2023-03-01T07:03:51;1.20;99.90
42479;DHT22;28110;47.080;9.476;2023-03-01T07:06:17;1.30;99.90
42479;DHT22;28110;47.080;9.476;2023-03-01T07:08:43;1.40;99.90
42479;DHT22;28110;47.080;9.476;2023-03-01T07:11:08;1.40;99.90
42479;DHT22;28110;47.080;9.476;2023-03-01T07:13:34;1.40;99.90
42479;DHT22;28110;47.080;9.476;2023-03-01T07:16:00;1.40;99.90
42479;DHT22;28110;47.080;9.476;2023-03-01T07:18:25;1.40;99.90
42479;DHT22;28110;47.080;9.476;2023-03-01T07:20:51;1.50;99.90
42479;DHT22;28110;47.080;9.476;2023-03-01T07:23:16;1.50;99.90
42479;DHT22;28110;47.080;9.476;2023-03-01T07:25:42;1.60;99.90
42479;DHT22;28110;47.080;9.476;2023-03-01T07:28:08;1.70;99.90
42479;DHT22;28110;47.080;9.476;2023-03-01T07:30:33;1.70;99.90
42479;DHT22;28110;47.080;9.476;2023-03-01T07:32:59;1.80;99.90
42479;DHT22;28110;47.080;9.476;2023-03-01T07:35:26;1.70;99.90
42479;DHT22;28110;47.080;9.476;2023-03-01T07:37:52;1.70;99.90
42479;DHT22;28110;47.080;9.476;2023-03-01T07:40:17;1.70;99.90
42479;DHT22;28110;47.080;9.476;2023-03-01T07:42:43;1.70;99.90
42479;DHT22;28110;47.080;9.476;2023-03-01T07:45:09;1.70;99.90
42479;DHT22;28110;47.080;9.476;2023-03-01T07:47:35;1.80;99.90
42479;DHT22;28110;47.080;9.476;2023-03-01T07:50:00;1.80;99.90
42479;DHT22;28110;47.080;9.476;2023-03-01T07:52:27;1.80;99.90
42479;DHT22;28110;47.080;9.476;2023-03-01T07:54:52;1.70;99.90
42479;DHT22;28110;47.080;9.476;2023-03-01T07:57:18;1.80;99.90
42479;DHT22;28110;47.080;9.476;2023-03-01T07:59:43;1.80;99.90
42479;DHT22;28110;47.080;9.476;2023-03-01T08:02:10;1.80;99.90
42479;DHT22;28110;47.080;9.476;2023-03-01T08:04:36;1.80;99.90
42479;DHT22;28110;47.080;9.476;2023-03-01T08:07:04;1.80;99.90
42479;DHT22;28110;47.080;9.476;2023-03-01T08:09:29;1.80;99.90
42479;DHT22;28110;47.080;9.476;2023-03-01T08:11:56;1.80;99.90
42479;DHT22;28110;47.080;9.476;2023-03-01T08:14:22;1.90;99.90
42479;DHT22;28110;47.080;9.476;2023-03-01T08:16:51;1.90;99.90
42479;DHT22;28110;47.080;9.476;2023-03-01T08:19:17;2.00;99.90
42479;DHT22;28110;47.080;9.476;2023-03-01T08:21:42;2.00;99.90
42479;DHT22;28110;47.080;9.476;2023-03-01T08:24:08;2.10;99.90
42479;DHT22;28110;47.080;9.476;2023-03-01T08:26:35;2.20;99.90
42479;DHT22;28110;47.080;9.476;2023-03-01T08:29:01;2.20;99.90
42479;DHT22;28110;47.080;9.476;2023-03-01T08:31:33;2.30;99.90
42479;DHT22;28110;47.080;9.476;2023-03-01T08:34:02;2.40;99.90
42479;DHT22;28110;47.080;9.476;2023-03-01T08:36:30;2.40;99.90
42479;DHT22;28110;47.080;9.476;2023-03-01T08:38:56;2.40;99.90
42479;DHT22;28110;47.080;9.476;2023-03-01T08:41:22;2.40;99.90
42479;DHT22;28110;47.080;9.476;2023-03-01T08:43:48;2.40;99.90
42479;DHT22;28110;47.080;9.476;2023-03-01T08:46:14;2.40;99.90
42479;DHT22;28110;47.080;9.476;2023-03-01T08:48:39;2.30;99.90
42479;DHT22;28110;47.080;9.476;2023-03-01T08:51:14;2.30;99.90
42479;DHT22;28110;47.080;9.476;2023-03-01T08:53:40;2.30;99.90
42479;DHT22;28110;47.080;9.476;2023-03-01T08:56:06;2.30;99.90
42479;DHT22;28110;47.080;9.476;2023-03-01T08:58:32;2.20;99.90
42479;DHT22;28110;47.080;9.476;2023-03-01T09:00:57;2.10;99.90
42479;DHT22;28110;47.080;9.476;2023-03-01T09:03:24;2.10;99.90
42479;DHT22;28110;47.080;9.476;2023-03-01T09:05:50;2.10;99.90
42479;DHT22;28110;47.080;9.476;2023-03-01T09:08:17;2.00;99.90
42479;DHT22;28110;47.080;9.476;2023-03-01T09:10:42;2.00;99.90
42479;DHT22;28110;47.080;9.476;2023-03-01T09:13:08;2.00;99.90
42479;DHT22;28110;47.080;9.476;2023-03-01T09:15:36;2.00;99.90
42479;DHT22;28110;47.080;9.476;2023-03-01T09:18:02;2.00;99.90
42479;DHT22;28110;47.080;9.476;2023-03-01T09:20:28;2.00;99.90
42479;DHT22;28110;47.080;9.476;2023-03-01T09:22:53;2.00;99.90
42479;DHT22;28110;47.080;9.476;2023-03-01T09:25:19;2.00;99.90
42479;DHT22;28110;47.080;9.476;2023-03-01T09:27:44;2.10;99.90
42479;DHT22;28110;47.080;9.476;2023-03-01T09:30:10;2.00;99.90
42479;DHT22;28110;47.080;9.476;2023-03-01T09:32:36;2.00;99.90
42479;DHT22;28110;47.080;9.476;2023-03-01T09:35:02;2.00;99.90
42479;DHT22;28110;47.080;9.476;2023-03-01T09:37:33;2.00;99.90
42479;DHT22;28110;47.080;9.476;2023-03-01T09:39:59;2.00;99.90
42479;DHT22;28110;47.080;9.476;2023-03-01T09:42:25;2.00;99.90
42479;DHT22;28110;47.080;9.476;2023-03-01T09:44:59;2.00;99.90
42479;DHT22;28110;47.080;9.476;2023-03-01T09:47:30;2.10;99.90
42479;DHT22;28110;47.080;9.476;2023-03-01T09:50:15;2.10;99.90
42479;DHT22;28110;47.080;9.476;2023-03-01T09:53:00;2.20;99.90
42479;DHT22;28110;47.080;9.476;2023-03-01T09:55:31;2.30;99.90
42479;DHT22;28110;47.080;9.476;2023-03-01T10:00:53;2.60;99.90
42479;DHT22;28110;47.080;9.476;2023-03-01T10:03:35;2.70;99.90
42479;DHT22;28110;47.080;9.476;2023-03-01T10:06:15;2.90;99.90
42479;DHT22;28110;47.080;9.476;2023-03-01T10:08:53;3.10;99.90
42479;DHT22;28110;47.080;9.476;2023-03-01T10:11:22;3.20;99.90
42479;DHT22;28110;47.080;9.476;2023-03-01T10:16:50;3.40;99.90
42479;DHT22;28110;47.080;9.476;2023-03-01T10:19:24;3.40;99.90
42479;DHT22;28110;47.080;9.476;2023-03-01T10:21:53;3.40;99.90
42479;DHT22;28110;47.080;9.476;2023-03-01T10:24:19;3.50;99.90
42479;DHT22;28110;47.080;9.476;2023-03-01T10:27:05;3.50;99.90
42479;DHT22;28110;47.080;9.476;2023-03-01T10:29:47;3.50;99.90
42479;DHT22;28110;47.080;9.476;2023-03-01T10:32:14;3.70;99.90
42479;DHT22;28110;47.080;9.476;2023-03-01T10:34:40;3.70;99.90
42479;DHT22;28110;47.080;9.476;2023-03-01T10:37:17;3.60;99.90
42479;DHT22;28110;47.080;9.476;2023-03-01T10:40:01;3.60;99.90
42479;DHT22;28110;47.080;9.476;2023-03-01T10:42:37;3.50;99.90
42479;DHT22;28110;47.080;9.476;2023-03-01T10:45:37;3.50;99.90
42479;DHT22;28110;47.080;9.476;2023-03-01T10:48:18;3.30;99.90
42479;DHT22;28110;47.080;9.476;2023-03-01T10:51:05;3.30;99.90
42479;DHT22;28110;47.080;9.476;2023-03-01T10:53:42;3.40;99.90
42479;DHT22;28110;47.080;9.476;2023-03-01T10:56:13;3.30;99.90
42479;DHT22;28110;47.080;9.476;2023-03-01T10:59:02;3.40;99.90
42479;DHT22;28110;47.080;9.476;2023-03-01T11:01:28;3.30;99.90
42479;DHT22;28110;47.080;9.476;2023-03-01T11:04:13;3.30;99.90
42479;DHT22;28110;47.080;9.476;2023-03-01T11:06:40;3.30;99.90
42479;DHT22;28110;47.080;9.476;2023-03-01T11:09:22;3.30;99.90
42479;DHT22;28110;47.080;9.476;2023-03-01T11:11:54;3.40;99.90
42479;DHT22;28110;47.080;9.476;2023-03-01T11:14:24;3.30;99.90
42479;DHT22;28110;47.080;9.476;2023-03-01T11:17:21;3.40;99.90
42479;DHT22;28110;47.080;9.476;2023-03-01T11:22:56;3.50;99.90
42479;DHT22;28110;47.080;9.476;2023-03-01T11:25:31;3.50;99.90
42479;DHT22;28110;47.080;9.476;2023-03-01T11:27:58;3.60;99.90
42479;DHT22;28110;47.080;9.476;2023-03-01T11:30:58;3.50;99.90
42479;DHT22;28110;47.080;9.476;2023-03-01T11:33:37;3.50;99.90
42479;DHT22;28110;47.080;9.476;2023-03-01T11:38:50;3.50;99.90
42479;DHT22;28110;47.080;9.476;2023-03-01T11:41:25;3.50;99.90
42479;DHT22;28110;47.080;9.476;2023-03-01T11:44:00;3.40;99.90
42479;DHT22;28110;47.080;9.476;2023-03-01T11:51:59;3.40;99.90
42479;DHT22;28110;47.080;9.476;2023-03-01T11:56:57;3.60;99.90
42479;DHT22;28110;47.080;9.476;2023-03-01T12:05:44;3.80;99.90
42479;DHT22;28110;47.080;9.476;2023-03-01T12:08:48;3.80;99.90
42479;DHT22;28110;47.080;9.476;2023-03-01T12:11:39;3.80;99.90
42479;DHT22;28110;47.080;9.476;2023-03-01T12:19:40;4.00;99.90
42479;DHT22;28110;47.080;9.476;2023-03-01T12:22:31;4.10;99.90
42479;DHT22;28110;47.080;9.476;2023-03-01T12:30:46;4.20;99.90
42479;DHT22;28110;47.080;9.476;2023-03-01T12:36:53;4.00;99.90
42479;DHT22;28110;47.080;9.476;2023-03-01T12:42:07;4.00;99.90
42479;DHT22;28110;47.080;9.476;2023-03-01T12:45:03;4.10;99.90
42479;DHT22;28110;47.080;9.476;2023-03-01T12:50:26;4.00;99.90
42479;DHT22;28110;47.080;9.476;2023-03-01T12:52:56;3.90;99.90
42479;DHT22;28110;47.080;9.476;2023-03-01T12:55:30;3.90;99.90
42479;DHT22;28110;47.080;9.476;2023-03-01T13:03:38;3.90;99.90
42479;DHT22;28110;47.080;9.476;2023-03-01T13:06:18;4.00;99.90
42479;DHT22;28110;47.080;9.476;2023-03-01T13:08:54;4.00;99.90
42479;DHT22;28110;47.080;9.476;2023-03-01T13:11:22;4.10;99.90
42479;DHT22;28110;47.080;9.476;2023-03-01T13:13:49;4.00;99.90
42479;DHT22;28110;47.080;9.476;2023-03-01T13:19:17;4.00;99.90
42479;DHT22;28110;47.080;9.476;2023-03-01T13:21:44;4.10;99.90
42479;DHT22;28110;47.080;9.476;2023-03-01T13:24:33;4.10;99.90
42479;DHT22;28110;47.080;9.476;2023-03-01T13:29:50;4.10;99.90
42479;DHT22;28110;47.080;9.476;2023-03-01T13:32:26;4.20;99.90
42479;DHT22;28110;47.080;9.476;2023-03-01T13:37:52;4.20;99.90
42479;DHT22;28110;47.080;9.476;2023-03-01T13:42:49;4.10;99.90
42479;DHT22;28110;47.080;9.476;2023-03-01T13:48:18;4.00;99.90
42479;DHT22;28110;47.080;9.476;2023-03-01T13:50:58;4.00;99.90
42479;DHT22;28110;47.080;9.476;2023-03-01T13:53:29;4.00;99.90
42479;DHT22;28110;47.080;9.476;2023-03-01T13:56:15;4.00;99.90
42479;DHT22;28110;47.080;9.476;2023-03-01T13:59:02;4.00;99.90
42479;DHT22;28110;47.080;9.476;2023-03-01T14:01:32;4.00;99.90
42479;DHT22;28110;47.080;9.476;2023-03-01T14:03:59;4.00;99.90
42479;DHT22;28110;47.080;9.476;2023-03-01T14:06:30;4.10;99.90
42479;DHT22;28110;47.080;9.476;2023-03-01T14:09:20;4.20;99.90
42479;DHT22;28110;47.080;9.476;2023-03-01T14:18:03;4.10;99.90
42479;DHT22;28110;47.080;9.476;2023-03-01T14:20:38;4.20;99.90
42479;DHT22;28110;47.080;9.476;2023-03-01T14:23:11;4.10;99.90
42479;DHT22;28110;47.080;9.476;2023-03-01T14:25:38;4.00;99.90
42479;DHT22;28110;47.080;9.476;2023-03-01T14:28:23;4.00;99.90
42479;DHT22;28110;47.080;9.476;2023-03-01T14:30:52;4.00;99.90
42479;DHT22;28110;47.080;9.476;2023-03-01T14:38:23;4.00;99.90
42479;DHT22;28110;47.080;9.476;2023-03-01T14:40:51;4.00;99.90
42479;DHT22;28110;47.080;9.476;2023-03-01T14:43:22;4.00;99.90
42479;DHT22;28110;47.080;9.476;2023-03-01T14:45:50;4.00;99.90
42479;DHT22;28110;47.080;9.476;2023-03-01T14:48:16;4.10;99.90
42479;DHT22;28110;47.080;9.476;2023-03-01T14:50:43;4.00;99.90
42479;DHT22;28110;47.080;9.476;2023-03-01T14:53:18;4.00;99.90
42479;DHT22;28110;47.080;9.476;2023-03-01T14:55:47;4.00;99.90
42479;DHT22;28110;47.080;9.476;2023-03-01T14:58:15;4.00;99.90
42479;DHT22;28110;47.080;9.476;2023-03-01T15:00:50;4.00;99.90
42479;DHT22;28110;47.080;9.476;2023-03-01T15:03:33;3.90;99.90
42479;DHT22;28110;47.080;9.476;2023-03-01T15:06:04;3.90;99.90
42479;DHT22;28110;47.080;9.476;2023-03-01T15:08:31;3.90;99.90
42479;DHT22;28110;47.080;9.476;2023-03-01T15:11:19;3.80;99.90
42479;DHT22;28110;47.080;9.476;2023-03-01T15:13:48;3.80;99.90
42479;DHT22;28110;47.080;9.476;2023-03-01T15:16:15;3.80;99.90
42479;DHT22;28110;47.080;9.476;2023-03-01T15:18:49;3.80;99.90
42479;DHT22;28110;47.080;9.476;2023-03-01T15:21:24;3.80;99.90
42479;DHT22;28110;47.080;9.476;2023-03-01T15:23:55;3.80;99.90
42479;DHT22;28110;47.080;9.476;2023-03-01T15:26:30;3.80;99.90
42479;DHT22;28110;47.080;9.476;2023-03-01T15:28:59;3.70;99.90
42479;DHT22;28110;47.080;9.476;2023-03-01T15:31:28;3.70;99.90
42479;DHT22;28110;47.080;9.476;2023-03-01T15:34:28;3.60;99.90
42479;DHT22;28110;47.080;9.476;2023-03-01T15:36:56;3.60;99.90
42479;DHT22;28110;47.080;9.476;2023-03-01T15:41:52;3.50;99.90
42479;DHT22;28110;47.080;9.476;2023-03-01T15:44:32;3.50;99.90
42479;DHT22;28110;47.080;9.476;2023-03-01T15:46:58;3.60;99.90
42479;DHT22;28110;47.080;9.476;2023-03-01T15:51:54;3.50;99.90
42479;DHT22;28110;47.080;9.476;2023-03-01T15:54:22;3.50;99.90
42479;DHT22;28110;47.080;9.476;2023-03-01T15:56:49;3.40;99.90
42479;DHT22;28110;47.080;9.476;2023-03-01T15:59:14;3.40;99.90
42479;DHT22;28110;47.080;9.476;2023-03-01T16:01:44;3.40;99.90
42479;DHT22;28110;47.080;9.476;2023-03-01T16:04:11;3.40;99.90
42479;DHT22;28110;47.080;9.476;2023-03-01T16:06:46;3.40;99.90
42479;DHT22;28110;47.080;9.476;2023-03-01T16:09:12;3.30;99.90
42479;DHT22;28110;47.080;9.476;2023-03-01T16:11:37;3.30;99.90
42479;DHT22;28110;47.080;9.476;2023-03-01T16:14:05;3.30;99.90
42479;DHT22;28110;47.080;9.476;2023-03-01T16:16:30;3.20;99.90
42479;DHT22;28110;47.080;9.476;2023-03-01T16:18:56;3.20;99.90
42479;DHT22;28110;47.080;9.476;2023-03-01T16:21:23;3.20;99.90
42479;DHT22;28110;47.080;9.476;2023-03-01T16:23:50;3.20;99.90
42479;DHT22;28110;47.080;9.476;2023-03-01T16:26:16;3.10;99.90
42479;DHT22;28110;47.080;9.476;2023-03-01T16:28:43;3.10;99.90
42479;DHT22;28110;47.080;9.476;2023-03-01T16:31:10;3.10;99.90
42479;DHT22;28110;47.080;9.476;2023-03-01T16:33:36;3.10;99.90
42479;DHT22;28110;47.080;9.476;2023-03-01T16:36:07;3.10;99.90
42479;DHT22;28110;47.080;9.476;2023-03-01T16:38:33;3.10;99.90
42479;DHT22;28110;47.080;9.476;2023-03-01T16:41:00;3.10;99.90
42479;DHT22;28110;47.080;9.476;2023-03-01T16:43:25;3.10;99.90
42479;DHT22;28110;47.080;9.476;2023-03-01T16:45:51;3.10;99.90
42479;DHT22;28110;47.080;9.476;2023-03-01T16:48:17;3.00;99.90
42479;DHT22;28110;47.080;9.476;2023-03-01T16:50:42;3.10;99.90
42479;DHT22;28110;47.080;9.476;2023-03-01T16:53:08;3.10;99.90
42479;DHT22;28110;47.080;9.476;2023-03-01T16:55:33;3.10;99.90
42479;DHT22;28110;47.080;9.476;2023-03-01T16:57:59;3.10;99.90
42479;DHT22;28110;47.080;9.476;2023-03-01T17:00:25;3.10;99.90
42479;DHT22;28110;47.080;9.476;2023-03-01T17:02:50;3.00;99.90
42479;DHT22;28110;47.080;9.476;2023-03-01T17:05:18;3.10;99.90
42479;DHT22;28110;47.080;9.476;2023-03-01T17:07:46;3.10;99.90
42479;DHT22;28110;47.080;9.476;2023-03-01T17:10:12;3.00;99.90
42479;DHT22;28110;47.080;9.476;2023-03-01T17:12:38;3.00;99.90
42479;DHT22;28110;47.080;9.476;2023-03-01T17:15:04;3.00;99.90
42479;DHT22;28110;47.080;9.476;2023-03-01T17:17:31;2.90;99.90
42479;DHT22;28110;47.080;9.476;2023-03-01T17:19:56;2.90;99.90
42479;DHT22;28110;47.080;9.476;2023-03-01T17:22:22;2.90;99.90
42479;DHT22;28110;47.080;9.476;2023-03-01T17:24:48;2.90;99.90
42479;DHT22;28110;47.080;9.476;2023-03-01T17:27:13;2.80;99.90